Time;durP1;ratioP1;P1;durP2;ratioP2;P2;SDS_P1;SDS_P2;PMS_P1;PMS_P2;Temp;Humidity;BMP_temperature;BMP_pressure;BME280_temperature;BME280_humidity;BME280_pressure;Samples;Min_cycle;Max_cycle;Signal;HPM_P1;HPM_P2
2022/06/09 00:01:43;;;;;;;5.43;3.50;;;17.90;99.90;;;;;;4983752;28;20035;-73
2022/06/09 00:04:32;;;;;;;6.32;3.75;;;17.90;99.90;;;;;;4977958;28;20030;-75
2022/06/09 00:07:05;;;;;;;11.52;7.50;;;17.90;99.90;;;;;;4982669;28;20502;-75
2022/06/09 00:09:37;;;;;;;11.05;8.10;;;17.90;99.90;;;;;;4983664;28;20078;-75
2022/06/09 00:12:03;;;;;;;11.07;7.38;;;17.90;99.90;;;;;;4982576;28;20038;-75
2022/06/09 00:14:29;;;;;;;10.18;7.38;;;17.90;99.90;;;;;;4983307;28;20129;-75
2022/06/09 00:16:56;;;;;;;9.63;7.32;;;17.90;99.90;;;;;;4982766;28;20152;-75
2022/06/09 00:19:22;;;;;;;10.43;8.15;;;17.90;99.90;;;;;;4978986;28;20062;-75
2022/06/09 00:21:47;;;;;;;11.02;7.15;;;17.90;99.90;;;;;;4961733;28;20517;-75
2022/06/09 00:24:13;;;;;;;8.80;6.70;;;17.80;99.90;;;;;;4977847;28;20039;-75
2022/06/09 00:26:39;;;;;;;12.13;7.93;;;17.80;99.90;;;;;;4983564;28;20035;-74
2022/06/09 00:29:05;;;;;;;10.98;6.32;;;17.80;99.90;;;;;;4982081;28;20495;-75
2022/06/09 00:31:31;;;;;;;9.00;5.57;;;17.70;99.90;;;;;;4980307;28;20410;-75
2022/06/09 00:33:57;;;;;;;7.65;5.22;;;17.60;99.90;;;;;;4983666;28;20027;-75
2022/06/09 00:36:23;;;;;;;8.52;5.63;;;17.50;99.90;;;;;;4985001;28;20034;-75
2022/06/09 00:38:48;;;;;;;6.30;4.78;;;17.40;99.90;;;;;;4973044;28;20038;-75
2022/06/09 00:41:14;;;;;;;7.43;4.38;;;17.50;99.90;;;;;;4977944;28;20042;-74
2022/06/09 00:43:44;;;;;;;6.03;4.35;;;17.50;99.90;;;;;;4980121;28;20026;-73
2022/06/09 00:46:31;;;;;;;5.18;4.15;;;17.60;99.90;;;;;;4975018;28;20527;-74
2022/06/09 00:49:04;;;;;;;8.75;4.97;;;17.70;99.90;;;;;;4965124;28;20494;-74
2022/06/09 00:51:39;;;;;;;7.22;4.40;;;17.50;99.90;;;;;;4978597;28;20398;-73
2022/06/09 00:54:38;;;;;;;6.60;4.38;;;17.60;99.90;;;;;;4980183;28;20062;-73
2022/06/09 00:57:17;;;;;;;6.05;4.30;;;17.70;99.90;;;;;;4975596;28;20026;-75
2022/06/09 00:59:49;;;;;;;7.32;5.82;;;17.70;99.90;;;;;;4966768;28;20034;-73
2022/06/09 01:02:18;;;;;;;7.38;4.95;;;17.50;99.90;;;;;;4963442;28;20532;-74
2022/06/09 01:04:46;;;;;;;5.75;4.43;;;17.50;99.90;;;;;;4980188;28;20029;-74
2022/06/09 01:07:23;;;;;;;8.55;5.00;;;17.50;99.90;;;;;;4980196;28;20556;-74
2022/06/09 01:09:49;;;;;;;8.15;5.40;;;17.50;99.90;;;;;;4982676;28;20462;-73
2022/06/09 01:12:31;;;;;;;6.47;4.32;;;17.30;99.90;;;;;;4983825;28;20047;-75
2022/06/09 01:15:10;;;;;;;8.10;6.07;;;17.30;99.90;;;;;;4980085;28;20042;-74
2022/06/09 01:18:14;;;;;;;7.82;6.60;;;17.20;99.90;;;;;;4988452;28;20041;-74
2022/06/09 01:20:51;;;;;;;8.65;5.68;;;17.00;99.90;;;;;;4977597;28;20033;-75
2022/06/09 01:23:40;;;;;;;9.05;4.78;;;17.10;99.90;;;;;;4976168;28;20073;-75
2022/06/09 01:26:56;;;;;;;8.38;5.50;;;17.10;99.90;;;;;;4982244;28;20029;-75
2022/06/09 01:29:49;;;;;;;6.22;4.70;;;17.20;99.90;;;;;;4980422;28;20057;-75
2022/06/09 01:32:26;;;;;;;6.78;6.03;;;17.30;99.90;;;;;;4979499;28;20038;-74
2022/06/09 01:35:18;;;;;;;10.05;6.55;;;17.10;99.90;;;;;;4983112;28;20026;-74
2022/06/09 01:37:47;;;;;;;7.13;5.53;;;17.00;99.90;;;;;;4979665;28;20473;-74
2022/06/09 01:40:17;;;;;;;6.72;4.93;;;16.90;99.90;;;;;;4983376;28;20033;-74
2022/06/09 01:42:46;;;;;;;6.35;4.55;;;16.90;99.90;;;;;;4974461;28;20018;-74
2022/06/09 01:45:26;;;;;;;11.00;5.90;;;17.00;99.90;;;;;;4977748;28;20038;-74
2022/06/09 01:48:13;;;;;;;9.23;5.78;;;17.00;99.90;;;;;;4984088;28;20072;-74
2022/06/09 01:50:45;;;;;;;6.05;5.10;;;16.90;99.90;;;;;;4981352;28;20026;-74
2022/06/09 01:53:19;;;;;;;7.60;4.57;;;16.90;99.90;;;;;;4979968;28;20023;-75
2022/06/09 01:55:51;;;;;;;9.82;5.50;;;16.90;99.90;;;;;;4984623;28;20538;-74
2022/06/09 01:58:22;;;;;;;7.18;4.85;;;16.80;99.90;;;;;;4987408;28;20030;-74
2022/06/09 02:00:49;;;;;;;8.88;5.13;;;16.90;99.90;;;;;;4959295;28;20095;-74
2022/06/09 02:03:23;;;;;;;5.78;3.75;;;16.90;99.90;;;;;;4974782;28;20117;-74
2022/06/09 02:05:51;;;;;;;5.90;4.13;;;16.90;99.90;;;;;;4984315;28;20034;-75
2022/06/09 02:08:21;;;;;;;5.40;3.97;;;16.80;99.90;;;;;;4983094;28;20077;-74
2022/06/09 02:10:56;;;;;;;5.35;3.83;;;16.80;99.90;;;;;;4982728;28;20031;-74
2022/06/09 02:13:27;;;;;;;7.07;4.70;;;16.90;99.90;;;;;;4982469;28;20022;-73
2022/06/09 02:15:55;;;;;;;;;;;16.80;99.90;;;;;;4986745;28;20041;-73
2022/06/09 02:18:26;;;;;;;8.13;3.85;;;16.70;99.90;;;;;;4987378;28;19917;-74
2022/06/09 02:21:21;;;;;;;5.38;3.80;;;16.60;99.90;;;;;;4984600;28;20969;-73
2022/06/09 02:23:47;;;;;;;6.10;3.92;;;16.60;99.90;;;;;;4982230;28;20042;-74
2022/06/09 02:26:20;;;;;;;4.55;2.92;;;16.60;99.90;;;;;;4981103;28;20122;-78
2022/06/09 02:28:50;;;;;;;3.65;2.78;;;16.50;99.90;;;;;;4985549;28;20038;-75
2022/06/09 02:31:18;;;;;;;2.65;2.20;;;16.60;99.90;;;;;;4981740;28;20030;-73
2022/06/09 02:33:44;;;;;;;3.72;2.70;;;16.60;99.90;;;;;;4968837;28;20030;-74
2022/06/09 02:36:10;;;;;;;3.35;2.78;;;16.60;99.90;;;;;;4970910;28;20034;-76
2022/06/09 02:38:36;;;;;;;3.40;2.05;;;16.40;99.90;;;;;;4983858;28;20577;-75
2022/06/09 02:41:02;;;;;;;3.70;2.60;;;16.50;99.90;;;;;;4983122;28;20035;-74
2022/06/09 02:43:28;;;;;;;4.15;2.70;;;16.50;99.90;;;;;;4982163;28;20053;-77
2022/06/09 02:45:53;;;;;;;5.18;2.95;;;16.40;99.90;;;;;;4981713;28;20034;-75
2022/06/09 02:48:20;;;;;;;3.25;2.35;;;16.40;99.90;;;;;;4978025;28;20038;-75
2022/06/09 02:50:46;;;;;;;4.30;3.00;;;16.40;99.90;;;;;;4966814;28;20190;-75
2022/06/09 02:53:13;;;;;;;5.70;3.45;;;16.40;99.90;;;;;;4985019;28;20121;-74
2022/06/09 02:55:39;;;;;;;5.68;3.22;;;16.30;99.90;;;;;;4982563;28;20039;-73
2022/06/09 02:58:05;;;;;;;5.15;3.72;;;16.30;99.90;;;;;;4984978;28;20042;-73
2022/06/09 03:00:31;;;;;;;3.22;2.92;;;16.30;99.90;;;;;;4987381;28;20136;-74
2022/06/09 03:03:01;;;;;;;4.45;3.40;;;16.30;99.90;;;;;;4982355;28;20034;-73
2022/06/09 03:05:29;;;;;;;4.85;3.75;;;16.30;99.90;;;;;;4980865;28;20023;-73
2022/06/09 03:07:56;;;;;;;6.55;3.90;;;16.30;99.90;;;;;;4985531;28;20426;-73
2022/06/09 03:10:22;;;;;;;4.70;3.55;;;16.30;99.90;;;;;;4983547;28;20026;-74
2022/06/09 03:12:48;;;;;;;5.57;3.65;;;16.30;99.90;;;;;;4986001;28;20036;-74
2022/06/09 03:15:16;;;;;;;6.50;3.78;;;16.40;99.90;;;;;;4983903;28;20041;-75
2022/06/09 03:17:42;;;;;;;4.13;3.10;;;16.40;99.90;;;;;;4982784;28;20149;-75
2022/06/09 03:20:13;;;;;;;5.65;3.65;;;16.40;99.90;;;;;;4983995;28;20113;-74
2022/06/09 03:22:39;;;;;;;7.00;4.50;;;16.30;99.90;;;;;;4983261;28;20058;-74
2022/06/09 03:25:05;;;;;;;6.68;4.25;;;16.30;99.90;;;;;;4984389;28;20502;-74
2022/06/09 03:27:31;;;;;;;5.53;4.13;;;16.30;99.90;;;;;;4980305;28;20227;-77
2022/06/09 03:29:57;;;;;;;4.88;4.28;;;16.30;99.90;;;;;;4983110;28;20059;-75
2022/06/09 03:32:22;;;;;;;8.63;4.45;;;16.30;99.90;;;;;;4982107;28;20038;-74
2022/06/09 03:34:49;;;;;;;7.13;4.88;;;16.40;99.90;;;;;;4979952;28;20082;-74
2022/06/09 03:37:15;;;;;;;9.98;4.90;;;16.40;99.90;;;;;;4977013;28;20039;-73
2022/06/09 03:39:41;;;;;;;11.73;7.70;;;16.40;99.90;;;;;;4966767;28;20030;-73
2022/06/09 03:42:07;;;;;;;9.27;6.57;;;16.30;99.90;;;;;;4980466;28;20121;-75
2022/06/09 03:44:32;;;;;;;7.35;6.22;;;16.20;99.90;;;;;;4984001;28;20123;-75
2022/06/09 03:46:58;;;;;;;9.32;5.75;;;16.20;99.90;;;;;;4981858;28;20046;-73
2022/06/09 03:49:24;;;;;;;12.43;7.82;;;16.20;99.90;;;;;;4981463;28;20035;-74
2022/06/09 03:51:50;;;;;;;9.93;7.22;;;16.20;99.90;;;;;;4994763;28;20495;-74
2022/06/09 03:54:15;;;;;;;8.27;6.88;;;16.30;99.90;;;;;;4985735;28;20037;-75
2022/06/09 03:56:42;;;;;;;11.63;7.38;;;16.30;99.90;;;;;;4977942;28;20113;-75
2022/06/09 03:59:12;;;;;;;10.68;6.88;;;16.20;99.90;;;;;;4980153;28;20031;-74
2022/06/09 04:01:38;;;;;;;14.60;9.50;;;16.30;99.90;;;;;;4963056;28;20031;-74
2022/06/09 04:04:05;;;;;;;12.10;9.90;;;16.20;99.90;;;;;;4972408;28;20305;-73
2022/06/09 04:06:32;;;;;;;10.73;8.05;;;16.20;99.90;;;;;;4979706;28;22003;-75
2022/06/09 04:08:58;;;;;;;11.70;9.32;;;16.20;99.90;;;;;;4964326;28;20058;-75
2022/06/09 04:11:24;;;;;;;16.23;10.57;;;16.10;99.90;;;;;;4980624;28;20039;-75
2022/06/09 04:13:50;;;;;;;17.30;12.25;;;16.20;99.90;;;;;;4975356;28;20026;-75
2022/06/09 04:16:29;;;;;;;14.27;10.32;;;16.20;99.90;;;;;;4974798;28;20038;-75
2022/06/09 04:18:59;;;;;;;15.07;10.40;;;16.20;99.90;;;;;;4980661;28;20043;-79
2022/06/09 04:21:25;;;;;;;12.63;9.93;;;16.20;99.90;;;;;;4979164;28;20454;-75
2022/06/09 04:23:51;;;;;;;12.85;10.30;;;16.20;99.90;;;;;;4981763;28;20667;-75
2022/06/09 04:26:21;;;;;;;20.10;12.85;;;16.40;99.90;;;;;;4998538;28;20022;-73
2022/06/09 04:28:47;;;;;;;12.65;10.10;;;16.40;99.90;;;;;;4992920;28;20027;-74
2022/06/09 04:31:14;;;;;;;15.98;10.55;;;16.40;99.90;;;;;;4985477;28;20030;-74
2022/06/09 04:33:41;;;;;;;13.18;10.43;;;16.50;99.90;;;;;;4987819;28;20081;-73
2022/06/09 04:36:08;;;;;;;20.58;13.50;;;16.60;99.90;;;;;;4982823;28;20073;-73
2022/06/09 04:38:38;;;;;;;18.30;12.70;;;16.60;99.90;;;;;;4959005;28;20076;-75
2022/06/09 04:41:09;;;;;;;15.52;11.52;;;16.60;99.90;;;;;;4976060;28;20031;-74
2022/06/09 04:43:40;;;;;;;16.95;11.25;;;16.70;99.90;;;;;;4981088;28;20035;-73
2022/06/09 04:46:06;;;;;;;16.53;12.20;;;16.70;99.90;;;;;;4979305;28;20478;-74
2022/06/09 04:48:33;;;;;;;15.23;10.75;;;16.80;99.90;;;;;;4980797;28;20342;-75
2022/06/09 04:50:59;;;;;;;20.85;13.27;;;16.90;99.90;;;;;;4987530;28;20038;-74
2022/06/09 04:53:25;;;;;;;16.63;11.50;;;17.00;99.90;;;;;;4964771;28;20026;-77
2022/06/09 04:55:52;;;;;;;16.40;11.27;;;17.10;99.90;;;;;;4972778;28;20031;-76
2022/06/09 04:58:18;;;;;;;14.00;9.80;;;17.10;99.90;;;;;;4982063;28;20030;-74
2022/06/09 05:00:43;;;;;;;15.73;9.65;;;17.20;99.90;;;;;;4962411;28;20166;-75
2022/06/09 05:03:13;;;;;;;12.27;10.70;;;17.20;99.90;;;;;;4967209;28;20132;-73
2022/06/09 05:05:44;;;;;;;15.90;10.80;;;17.20;99.90;;;;;;4961809;28;20034;-73
2022/06/09 05:08:11;;;;;;;14.97;10.57;;;17.10;99.90;;;;;;4970405;28;20046;-74
2022/06/09 05:10:42;;;;;;;12.43;10.13;;;17.10;99.90;;;;;;4966689;28;20285;-73
2022/06/09 05:13:08;;;;;;;16.67;10.73;;;17.20;99.90;;;;;;4969959;28;20039;-73
2022/06/09 05:15:38;;;;;;;20.50;12.30;;;17.20;99.90;;;;;;4970406;28;20377;-75
2022/06/09 05:18:04;;;;;;;17.27;13.32;;;17.10;99.90;;;;;;4971619;28;20062;-76
2022/06/09 05:20:31;;;;;;;21.42;12.98;;;17.10;99.90;;;;;;4969385;28;20026;-74
2022/06/09 05:22:58;;;;;;;19.25;10.57;;;17.10;99.90;;;;;;4964069;28;20038;-75
2022/06/09 05:25:24;;;;;;;13.88;9.55;;;17.10;99.90;;;;;;4967973;28;20153;-75
2022/06/09 05:27:50;;;;;;;17.60;10.93;;;17.20;99.90;;;;;;4970132;28;20027;-75
2022/06/09 05:30:19;;;;;;;15.60;10.82;;;17.30;99.90;;;;;;4972791;28;20305;-75
2022/06/09 05:32:46;;;;;;;17.85;12.98;;;17.30;99.90;;;;;;4989656;28;20030;-76
2022/06/09 05:35:11;;;;;;;13.80;10.52;;;17.30;99.90;;;;;;4974000;28;20053;-74
2022/06/09 05:45:56;;;;;;;19.10;11.80;;;17.60;99.90;;;;;;4985394;28;20140;-76
2022/06/09 05:48:22;;;;;;;13.07;9.40;;;17.60;99.90;;;;;;4984369;28;20037;-75
2022/06/09 05:50:49;;;;;;;12.30;7.97;;;17.70;99.90;;;;;;4975813;28;20039;-75
2022/06/09 05:53:15;;;;;;;14.00;8.60;;;17.80;99.90;;;;;;4984164;28;20035;-73
2022/06/09 05:55:42;;;;;;;10.07;6.20;;;17.90;99.90;;;;;;4960278;28;20034;-73
2022/06/09 05:58:08;;;;;;;11.27;6.95;;;17.90;99.90;;;;;;4973097;28;20046;-75
2022/06/09 06:00:35;;;;;;;10.55;6.35;;;18.00;99.90;;;;;;4980454;28;20484;-75
2022/06/09 06:03:01;;;;;;;8.52;6.00;;;18.00;99.90;;;;;;4978517;28;20062;-77
2022/06/09 06:08:10;;;;;;;9.60;5.70;;;18.10;99.90;;;;;;4980659;28;20035;-75
2022/06/09 06:10:36;;;;;;;10.05;6.00;;;18.10;99.90;;;;;;4976774;28;20034;-78
2022/06/09 06:13:03;;;;;;;10.43;6.60;;;18.00;99.90;;;;;;4973744;28;20088;-75
2022/06/09 06:15:29;;;;;;;8.65;6.05;;;18.00;99.90;;;;;;4978650;28;20039;-75
2022/06/09 06:17:56;;;;;;;7.95;6.30;;;17.90;99.90;;;;;;4967921;28;20089;-76
2022/06/09 06:20:23;;;;;;;8.55;5.88;;;17.90;99.90;;;;;;4983007;28;20058;-77
2022/06/09 06:22:49;;;;;;;6.50;5.13;;;17.90;99.90;;;;;;4980378;28;20121;-74
2022/06/09 06:25:15;;;;;;;7.00;4.97;;;17.90;99.90;;;;;;4965023;28;20030;-77
2022/06/09 06:27:42;;;;;;;4.80;3.60;;;17.90;99.90;;;;;;4991125;28;20822;-75
2022/06/09 06:30:09;;;;;;;5.82;3.90;;;17.80;99.90;;;;;;4982909;28;20126;-75
2022/06/09 06:32:35;;;;;;;6.03;4.40;;;17.80;99.90;;;;;;4972926;28;20042;-77
2022/06/09 06:35:01;;;;;;;4.68;3.78;;;17.90;99.90;;;;;;4984766;28;20035;-79
2022/06/09 06:37:31;;;;;;;3.70;2.80;;;18.00;99.90;;;;;;4983740;28;20027;-75
2022/06/09 06:39:57;;;;;;;4.72;3.30;;;18.00;99.90;;;;;;4982999;28;20037;-77
2022/06/09 06:42:23;;;;;;;5.38;3.20;;;18.00;99.90;;;;;;4979300;28;20395;-79
2022/06/09 06:44:49;;;;;;;4.95;3.35;;;18.00;99.90;;;;;;4981654;28;20431;-77
2022/06/09 06:47:15;;;;;;;4.22;3.35;;;18.00;99.90;;;;;;4975254;28;20031;-76
2022/06/09 06:49:42;;;;;;;3.65;2.97;;;18.00;99.90;;;;;;4966695;28;20032;-77
2022/06/09 06:52:09;;;;;;;4.50;3.38;;;18.00;99.90;;;;;;4978710;28;20105;-76
2022/06/09 06:54:35;;;;;;;3.72;3.20;;;18.00;99.90;;;;;;4973557;28;20077;-74
2022/06/09 06:57:05;;;;;;;4.88;3.45;;;17.90;99.90;;;;;;4977937;28;20029;-77
2022/06/09 06:59:32;;;;;;;4.15;3.20;;;17.90;99.90;;;;;;4957539;28;20431;-77
2022/06/09 07:01:59;;;;;;;5.80;3.58;;;17.90;99.90;;;;;;4978022;28;20031;-76
2022/06/09 07:04:25;;;;;;;4.22;3.47;;;18.00;99.90;;;;;;4985905;28;20046;-75
2022/06/09 07:06:51;;;;;;;4.43;3.78;;;18.10;99.90;;;;;;4984931;28;20063;-75
2022/06/09 07:09:17;;;;;;;4.68;3.60;;;18.20;99.90;;;;;;4984803;28;20108;-78
2022/06/09 07:11:45;;;;;;;6.60;4.13;;;18.30;99.90;;;;;;4980091;28;20056;-76
2022/06/09 07:14:12;;;;;;;4.30;3.50;;;18.30;99.90;;;;;;4981231;28;20091;-78
2022/06/09 07:16:38;;;;;;;5.43;3.97;;;18.40;99.90;;;;;;4978775;28;20033;-76
2022/06/09 07:19:04;;;;;;;7.22;4.60;;;18.40;99.90;;;;;;4978549;28;20042;-76
2022/06/09 07:21:31;;;;;;;7.95;4.65;;;18.50;99.90;;;;;;4974329;28;20022;-78
2022/06/09 07:23:58;;;;;;;6.15;4.35;;;18.60;99.90;;;;;;4985688;28;20041;-75
2022/06/09 07:26:25;;;;;;;4.95;3.78;;;18.60;99.90;;;;;;4972723;28;21755;-77
2022/06/09 07:28:52;;;;;;;6.22;4.18;;;18.70;99.90;;;;;;4977463;28;20050;-76
2022/06/09 07:31:18;;;;;;;4.85;4.10;;;18.80;99.90;;;;;;4969523;28;20031;-77
2022/06/09 07:33:44;;;;;;;6.13;4.80;;;18.90;99.90;;;;;;4982567;28;20037;-77
2022/06/09 07:36:18;;;;;;;7.47;4.78;;;19.00;99.90;;;;;;4983312;28;20043;-77
2022/06/09 07:38:45;;;;;;;5.93;4.78;;;19.00;99.90;;;;;;4976590;28;20494;-78
2022/06/09 07:41:13;;;;;;;5.68;4.60;;;18.90;99.90;;;;;;4981035;28;20018;-76
2022/06/09 07:43:41;;;;;;;6.55;4.00;;;18.80;99.90;;;;;;4984843;28;20054;-76
2022/06/09 07:46:08;;;;;;;5.55;4.55;;;18.70;99.90;;;;;;4978157;28;20513;-77
2022/06/09 07:48:34;;;;;;;8.13;5.80;;;18.70;99.90;;;;;;4969963;28;20026;-76
2022/06/09 07:51:00;;;;;;;6.55;5.32;;;18.50;99.90;;;;;;4982602;28;20037;-76
2022/06/09 07:53:26;;;;;;;9.48;4.93;;;18.50;99.90;;;;;;4972015;28;20046;-76
2022/06/09 07:55:53;;;;;;;6.65;4.68;;;18.30;99.90;;;;;;4983598;28;20069;-81
2022/06/09 07:58:19;;;;;;;7.85;6.50;;;18.30;99.90;;;;;;4980844;28;20507;-76
2022/06/09 08:00:48;;;;;;;8.85;7.50;;;18.20;99.90;;;;;;4976996;28;20158;-76
2022/06/09 08:03:18;;;;;;;28.42;17.70;;;18.10;99.90;;;;;;4979001;28;20045;-75
2022/06/09 08:05:45;;;;;;;9.68;6.28;;;18.10;99.90;;;;;;4974599;28;20491;-75
2022/06/09 08:08:11;;;;;;;8.45;5.90;;;18.10;99.90;;;;;;4979931;28;20038;-76
2022/06/09 08:10:38;;;;;;;10.45;6.78;;;18.20;99.90;;;;;;4976424;28;20027;-76
2022/06/09 08:13:05;;;;;;;9.48;6.47;;;18.30;99.90;;;;;;4973414;28;20034;-77
2022/06/09 08:15:32;;;;;;;12.20;7.32;;;18.50;99.90;;;;;;4976150;28;20033;-77
2022/06/09 08:17:59;;;;;;;10.15;7.10;;;18.70;99.90;;;;;;4967570;28;20120;-79
2022/06/09 08:20:33;;;;;;;9.07;7.07;;;18.80;99.90;;;;;;4982361;28;20430;-78
2022/06/09 08:23:12;;;;;;;9.27;6.97;;;18.70;99.90;;;;;;4983735;28;20026;-77
2022/06/09 08:25:43;;;;;;;11.90;7.35;;;18.60;99.90;;;;;;4981407;28;20410;-76
2022/06/09 08:28:10;;;;;;;10.50;6.88;;;18.60;99.90;;;;;;4983947;28;20027;-77
2022/06/09 08:30:38;;;;;;;11.98;6.82;;;18.50;99.90;;;;;;4983031;28;20061;-77
2022/06/09 08:33:05;;;;;;;13.32;7.57;;;18.60;99.90;;;;;;4982877;28;20038;-75
2022/06/09 08:35:34;;;;;;;9.50;6.00;;;18.60;99.90;;;;;;4964328;28;20037;-77
2022/06/09 08:38:04;;;;;;;12.05;7.25;;;18.70;99.90;;;;;;4982606;28;20027;-77
2022/06/09 08:41:17;;;;;;;10.95;6.63;;;18.70;99.90;;;;;;4976851;28;20088;-76
2022/06/09 08:44:34;;;;;;;13.20;6.95;;;18.80;99.90;;;;;;4977568;28;20053;-76
2022/06/09 08:47:08;;;;;;;16.45;8.45;;;18.80;99.90;;;;;;4955008;28;20098;-77
2022/06/09 08:49:57;;;;;;;9.80;6.47;;;18.90;99.90;;;;;;4957399;28;20047;-78
2022/06/09 08:53:09;;;;;;;12.23;6.10;;;19.00;99.90;;;;;;4974879;28;20047;-76
2022/06/09 08:55:38;;;;;;;13.07;6.88;;;19.00;99.90;;;;;;4975353;28;20047;-75
2022/06/09 08:58:24;;;;;;;9.77;6.82;;;19.20;99.90;;;;;;4981480;28;20061;-76
2022/06/09 09:01:03;;;;;;;12.10;8.15;;;19.30;99.90;;;;;;4979263;28;20781;-79
2022/06/09 09:03:41;;;;;;;11.07;6.90;;;19.20;99.90;;;;;;4968217;28;20121;-75
2022/06/09 09:06:25;;;;;;;11.75;7.95;;;19.00;99.90;;;;;;4979229;28;20022;-75
2022/06/09 09:08:52;;;;;;;16.20;11.60;;;18.80;99.90;;;;;;4980956;28;20029;-79
2022/06/09 09:11:21;;;;;;;13.88;8.77;;;18.80;99.90;;;;;;4977100;28;20018;-76
2022/06/09 09:14:12;;;;;;;12.18;7.38;;;18.90;99.90;;;;;;4974811;28;20030;-76
2022/06/09 09:17:12;;;;;;;8.68;6.65;;;19.00;99.90;;;;;;4977166;28;20502;-75
2022/06/09 09:19:59;;;;;;;10.90;6.25;;;19.00;99.90;;;;;;4961609;28;20034;-75
2022/06/09 09:22:37;;;;;;;9.45;6.78;;;19.10;99.90;;;;;;4973727;28;20037;-76
2022/06/09 09:25:03;;;;;;;9.27;6.30;;;19.20;99.90;;;;;;4982094;28;20030;-76
2022/06/09 09:27:40;;;;;;;9.70;5.97;;;19.20;99.90;;;;;;4974044;28;20030;-75
2022/06/09 09:30:30;;;;;;;5.80;4.47;;;19.30;99.90;;;;;;4979431;28;20034;-78
2022/06/09 09:32:56;;;;;;;9.77;5.95;;;19.50;99.90;;;;;;4981856;28;20506;-76
2022/06/09 09:35:40;;;;;;;11.52;7.70;;;19.60;99.90;;;;;;4980017;28;20057;-75
2022/06/09 09:38:08;;;;;;;9.35;5.82;;;19.80;99.90;;;;;;4986089;28;20042;-76
2022/06/09 09:40:36;;;;;;;9.52;6.03;;;19.80;99.90;;;;;;4990919;28;20037;-75
2022/06/09 09:43:09;;;;;;;9.73;6.28;;;19.90;99.90;;;;;;4979927;28;20121;-78
2022/06/09 09:45:45;;;;;;;9.43;5.88;;;19.90;99.90;;;;;;4982310;28;20038;-76
2022/06/09 09:48:17;;;;;;;10.43;5.88;;;20.00;99.90;;;;;;4983023;28;20027;-75
2022/06/09 09:50:54;;;;;;;9.48;6.53;;;20.00;99.90;;;;;;4964058;28;20446;-77
2022/06/09 09:53:23;;;;;;;8.30;6.10;;;20.00;99.90;;;;;;4994474;28;20035;-76
2022/06/09 09:56:03;;;;;;;10.25;6.95;;;20.00;99.90;;;;;;4983252;28;20026;-81
2022/06/09 09:58:40;;;;;;;9.20;6.00;;;20.00;99.90;;;;;;4974811;28;20052;-76
2022/06/09 10:01:24;;;;;;;7.43;6.10;;;19.90;99.90;;;;;;4981982;28;20037;-75
2022/06/09 10:10:08;;;;;;;6.63;4.70;;;20.10;99.90;;;;;;4977934;28;20076;-75
2022/06/09 10:12:35;;;;;;;6.97;5.00;;;20.30;99.90;;;;;;4984276;28;20369;-78
2022/06/09 10:15:11;;;;;;;5.57;3.70;;;20.60;99.90;;;;;;4981312;28;20498;-76
2022/06/09 10:17:55;;;;;;;6.38;4.63;;;20.80;99.90;;;;;;4976381;28;20810;-82
2022/06/09 10:20:44;;;;;;;8.32;5.95;;;20.90;99.90;;;;;;4981377;28;20054;-76
2022/06/09 10:23:10;;;;;;;7.03;5.18;;;20.70;99.90;;;;;;4953391;28;20646;-77
2022/06/09 10:25:48;;;;;;;8.98;5.65;;;20.50;99.90;;;;;;4973465;28;20029;-75
2022/06/09 10:28:26;;;;;;;10.77;6.25;;;20.20;99.90;;;;;;4983089;28;20565;-74
2022/06/09 10:31:02;;;;;;;9.50;6.53;;;20.00;99.90;;;;;;4986690;28;20034;-74
2022/06/09 10:33:33;;;;;;;8.77;5.75;;;20.10;99.90;;;;;;4984396;28;20182;-73
2022/06/09 10:36:07;;;;;;;8.95;5.85;;;20.20;99.90;;;;;;4984469;28;20037;-73
2022/06/09 10:38:47;;;;;;;8.68;5.38;;;20.30;99.90;;;;;;4985952;28;20088;-74
2022/06/09 10:41:40;;;;;;;8.23;5.47;;;20.40;99.90;;;;;;4984898;28;20418;-74
2022/06/09 10:44:30;;;;;;;8.10;5.18;;;20.60;99.90;;;;;;4976666;28;20035;-72
2022/06/09 10:56:15;;;;;;;6.60;4.97;;;21.20;99.90;;;;;;4986943;28;20109;-73
2022/06/09 10:59:01;;;;;;;7.20;5.28;;;21.30;99.90;;;;;;4989485;28;20065;-73
2022/06/09 11:01:29;;;;;;;5.50;4.25;;;21.40;99.90;;;;;;4982095;28;20113;-74
2022/06/09 11:03:55;;;;;;;4.60;3.95;;;21.50;99.90;;;;;;4978179;28;20038;-74
2022/06/09 11:06:38;;;;;;;7.60;4.43;;;21.60;99.90;;;;;;4983938;28;20037;-73
2022/06/09 11:09:32;;;;;;;5.45;4.85;;;21.60;99.90;;;;;;4984551;28;20340;-72
2022/06/09 11:12:15;;;;;;;6.32;3.95;;;21.40;99.90;;;;;;4967328;28;20030;-73
2022/06/09 11:14:53;;;;;;;4.70;3.80;;;21.50;99.90;;;;;;4985437;28;20035;-72
2022/06/09 11:17:27;;;;;;;4.00;3.50;;;21.90;99.90;;;;;;4963951;28;20070;-74
2022/06/09 11:20:12;;;;;;;3.90;3.50;;;22.60;99.90;;;;;;4984974;28;20042;-76
2022/06/09 11:23:07;;;;;;;3.78;3.38;;;22.60;99.90;;;;;;4985273;28;20034;-72
2022/06/09 11:25:48;;;;;;;3.40;2.72;;;22.30;99.90;;;;;;4987388;28;20034;-73
2022/06/09 11:28:30;;;;;;;5.93;2.92;;;22.10;99.90;;;;;;4978573;28;20124;-73
2022/06/09 11:31:10;;;;;;;3.22;2.92;;;22.20;99.90;;;;;;4972475;28;20138;-73
2022/06/09 11:33:57;;;;;;;2.60;2.40;;;22.00;99.90;;;;;;4985432;28;20046;-83
2022/06/09 11:37:02;;;;;;;2.67;2.45;;;22.00;99.90;;;;;;4974524;28;20060;-79
2022/06/09 11:39:27;;;;;;;2.90;2.47;;;21.90;99.90;;;;;;4950463;28;20411;-75
2022/06/09 11:42:08;;;;;;;2.72;2.53;;;21.80;99.90;;;;;;4978487;28;20038;-77
2022/06/09 11:44:38;;;;;;;;;;;23.10;99.90;;;;;;4984642;28;20038;-77
2022/06/09 11:47:11;;;;;;;3.85;2.28;;;23.80;99.20;;;;;;4971511;28;19914;-80
2022/06/09 11:49:52;;;;;;;2.60;2.00;;;23.60;99.20;;;;;;4966389;28;20027;-75
2022/06/09 11:52:24;;;;;;;2.60;2.40;;;23.60;99.10;;;;;;4968053;28;20073;-82
2022/06/09 11:54:54;;;;;;;2.10;1.90;;;24.30;97.50;;;;;;4969441;28;20038;-82
2022/06/09 11:57:25;;;;;;;2.97;2.27;;;24.20;97.40;;;;;;4973271;28;20102;-77
2022/06/09 11:59:51;;;;;;;2.40;2.10;;;25.40;97.30;;;;;;4969269;28;20031;-80
2022/06/09 12:02:51;;;;;;;2.63;2.10;;;26.60;92.40;;;;;;4973258;28;20069;-75
2022/06/09 12:05:28;;;;;;;2.65;2.25;;;27.30;90.30;;;;;;4968797;28;21727;-78
2022/06/09 12:08:05;;;;;;;328.55;292.38;;;27.50;81.30;;;;;;4968879;28;20043;-79
2022/06/09 12:11:07;;;;;;;7.00;6.00;;;26.80;83.60;;;;;;4968911;28;20030;-79
2022/06/09 12:13:45;;;;;;;61.35;52.80;;;25.70;82.60;;;;;;4950683;28;20077;-81
2022/06/09 12:16:34;;;;;;;8.75;7.63;;;25.00;88.90;;;;;;4973868;28;20728;-80
2022/06/09 12:19:24;;;;;;;2.83;2.60;;;25.00;93.40;;;;;;4976285;28;20528;-77
2022/06/09 12:21:59;;;;;;;3.38;2.90;;;25.40;88.50;;;;;;4977549;28;20026;-79
2022/06/09 12:25:10;;;;;;;2.40;1.90;;;25.70;90.40;;;;;;4984373;28;20033;-76
2022/06/09 12:27:37;;;;;;;2.22;1.40;;;27.10;90.00;;;;;;4986991;28;20030;-76
2022/06/09 12:30:04;;;;;;;3.92;2.03;;;28.70;80.30;;;;;;4982551;28;20072;-76
2022/06/09 12:32:49;;;;;;;2.80;2.10;;;29.30;73.80;;;;;;4981457;28;20023;-78
2022/06/09 12:35:39;;;;;;;3.38;2.35;;;29.20;69.00;;;;;;4980503;28;20030;-77
2022/06/09 12:38:38;;;;;;;3.25;2.30;;;28.40;67.50;;;;;;4974430;28;20031;-79
2022/06/09 12:41:37;;;;;;;1.90;1.70;;;27.10;70.50;;;;;;4980145;28;20490;-74
2022/06/09 12:44:23;;;;;;;2.72;2.20;;;26.10;77.40;;;;;;4980316;28;20030;-76
2022/06/09 12:47:12;;;;;;;3.08;1.95;;;26.10;80.20;;;;;;4981843;28;20027;-76
2022/06/09 12:49:42;;;;;;;3.08;2.13;;;27.30;78.90;;;;;;4981948;28;20034;-75
2022/06/09 12:52:30;;;;;;;3.47;1.70;;;27.90;71.90;;;;;;4981845;28;20110;-76
2022/06/09 12:55:04;;;;;;;2.50;1.90;;;28.80;72.10;;;;;;4974409;28;20274;-79
2022/06/09 12:57:33;;;;;;;1.83;1.40;;;30.30;65.80;;;;;;4980705;28;20030;-76
2022/06/09 13:00:27;;;;;;;4.63;1.53;;;31.20;64.80;;;;;;4972022;28;20506;-76
2022/06/09 13:02:54;;;;;;;2.45;1.83;;;31.70;58.80;;;;;;4981676;28;20044;-79
2022/06/09 13:05:36;;;;;;;1.95;1.50;;;31.00;56.40;;;;;;4984922;28;20072;-79
2022/06/09 13:08:14;;;;;;;1.70;1.60;;;31.00;57.80;;;;;;4980963;28;20113;-80
2022/06/09 13:10:44;;;;;;;3.85;1.30;;;31.50;56.20;;;;;;4983060;28;20031;-77
2022/06/09 13:13:27;;;;;;;1.37;1.27;;;31.20;57.50;;;;;;4982091;28;20038;-79
2022/06/09 13:15:58;;;;;;;2.95;1.48;;;30.40;57.00;;;;;;4975953;28;20042;-76
2022/06/09 13:18:41;;;;;;;1.95;1.50;;;29.40;58.50;;;;;;4980483;28;20081;-76
2022/06/09 13:21:15;;;;;;;1.40;1.08;;;30.10;56.60;;;;;;4980642;28;20503;-78
2022/06/09 13:23:45;;;;;;;1.23;1.00;;;30.90;55.60;;;;;;4978033;28;20030;-77
2022/06/09 13:26:21;;;;;;;2.88;1.58;;;30.60;56.50;;;;;;4974513;28;20498;-76
2022/06/09 13:28:50;;;;;;;3.38;1.30;;;30.40;56.00;;;;;;4978864;28;20077;-79
2022/06/09 13:31:30;;;;;;;2.55;1.38;;;29.60;55.90;;;;;;4976812;28;20030;-78
2022/06/09 13:34:09;;;;;;;2.85;1.63;;;29.50;57.00;;;;;;4986453;28;20034;-77
2022/06/09 13:36:56;;;;;;;2.95;1.70;;;29.10;57.40;;;;;;4973865;28;20039;-77
2022/06/09 13:39:32;;;;;;;2.25;1.50;;;30.20;57.30;;;;;;4977967;28;20112;-78